Time;durP1;ratioP1;P1;durP2;ratioP2;P2;SDS_P1;SDS_P2;PMS_P1;PMS_P2;Temp;Humidity;BMP_temperature;BMP_pressure;BME280_temperature;BME280_humidity;BME280_pressure;Samples;Min_cycle;Max_cycle;Signal;HPM_P1;HPM_P2
2021/04/13 00:02:28;;;;;;;4.18;0.93;;;1.30;99.90;;;;;;5052466;28;20252;-82
2021/04/13 00:05:00;;;;;;;6.93;1.20;;;1.30;99.90;;;;;;5044958;28;20216;-83
2021/04/13 00:07:29;;;;;;;4.65;1.20;;;1.20;99.90;;;;;;5046441;28;20662;-83
2021/04/13 00:09:59;;;;;;;2.50;1.20;;;1.20;99.90;;;;;;5048127;28;20258;-82
2021/04/13 00:12:30;;;;;;;2.47;1.50;;;1.20;99.90;;;;;;5046945;28;20291;-84
2021/04/13 00:15:09;;;;;;;3.90;1.35;;;1.10;99.90;;;;;;5047475;28;20193;-82
2021/04/13 00:17:34;;;;;;;1.20;1.13;;;1.20;99.90;;;;;;5044505;28;20200;-82
2021/04/13 00:20:40;;;;;;;4.07;1.40;;;1.20;99.90;;;;;;5059911;28;20455;-85
2021/04/13 00:23:07;;;;;;;3.75;1.10;;;1.20;99.90;;;;;;5060910;28;20208;-82
2021/04/13 00:25:39;;;;;;;5.50;1.42;;;1.20;99.90;;;;;;5063267;28;20678;-83
2021/04/13 00:28:07;;;;;;;2.53;1.20;;;1.20;99.90;;;;;;5064787;28;20658;-84
2021/04/13 00:30:58;;;;;;;1.10;1.00;;;1.20;99.90;;;;;;5046946;28;20209;-85
2021/04/13 00:33:27;;;;;;;1.83;1.20;;;1.20;99.90;;;;;;5058932;28;20263;-83
2021/04/13 00:36:11;;;;;;;1.42;1.05;;;1.10;99.90;;;;;;5044278;28;20555;-82
2021/04/13 00:38:52;;;;;;;2.72;1.13;;;1.20;99.90;;;;;;5060205;28;20216;-83
2021/04/13 00:41:31;;;;;;;2.25;1.15;;;1.10;99.90;;;;;;5044432;28;20583;-83
2021/04/13 00:44:07;;;;;;;2.40;1.30;;;1.10;99.90;;;;;;5061993;28;20188;-83
2021/04/13 00:46:57;;;;;;;2.28;1.33;;;1.10;99.90;;;;;;5042823;28;20192;-82
2021/04/13 00:49:26;;;;;;;5.82;1.30;;;1.10;99.90;;;;;;5064338;28;20202;-81
2021/04/13 00:52:47;;;;;;;1.35;0.90;;;1.10;99.90;;;;;;5046305;28;20208;-82
2021/04/13 00:55:16;;;;;;;3.15;1.20;;;1.00;99.90;;;;;;5023611;28;20233;-81
2021/04/13 00:57:46;;;;;;;1.40;1.10;;;1.10;99.90;;;;;;5043325;28;20274;-82
2021/04/13 01:00:23;;;;;;;2.33;1.20;;;1.10;99.90;;;;;;5061807;28;20231;-86
2021/04/13 01:02:49;;;;;;;4.07;1.60;;;1.10;99.90;;;;;;5064580;28;20510;-81
2021/04/13 01:05:21;;;;;;;2.83;1.55;;;1.10;99.90;;;;;;5019061;23;20590;-72
2021/04/13 01:07:52;;;;;;;4.88;1.50;;;1.10;99.90;;;;;;5007497;28;20628;-72
2021/04/13 01:10:36;;;;;;;2.08;1.25;;;1.20;99.90;;;;;;5019120;28;20703;-72
2021/04/13 01:13:09;;;;;;;1.98;1.10;;;1.20;99.90;;;;;;5017949;28;20214;-72
2021/04/13 01:15:37;;;;;;;3.13;1.42;;;1.20;99.90;;;;;;5012806;28;20702;-72
2021/04/13 01:18:13;;;;;;;2.05;1.33;;;1.20;99.90;;;;;;5018498;28;20232;-72
2021/04/13 01:21:11;;;;;;;2.75;1.23;;;1.20;99.90;;;;;;5015338;28;20275;-72
2021/04/13 01:23:53;;;;;;;1.30;1.20;;;1.20;99.90;;;;;;4987093;28;20604;-72
2021/04/13 01:26:19;;;;;;;2.42;1.10;;;1.20;99.90;;;;;;4999803;28;20232;-72
2021/04/13 01:28:47;;;;;;;1.60;1.30;;;1.20;99.90;;;;;;5021811;28;20195;-72
2021/04/13 01:31:49;;;;;;;2.28;1.35;;;1.20;99.90;;;;;;5014552;28;20203;-73
2021/04/13 01:34:37;;;;;;;1.35;1.10;;;1.20;99.90;;;;;;5020303;28;20225;-72
2021/04/13 01:37:05;;;;;;;2.92;0.93;;;1.20;99.90;;;;;;5016426;28;20212;-73
2021/04/13 01:39:41;;;;;;;1.35;1.02;;;1.20;99.90;;;;;;5017470;28;20193;-72
2021/04/13 01:42:07;;;;;;;1.50;1.23;;;1.20;99.90;;;;;;5021545;28;20687;-73
2021/04/13 01:44:38;;;;;;;1.63;1.20;;;1.20;99.90;;;;;;5021043;28;20204;-73
2021/04/13 01:47:06;;;;;;;1.55;1.30;;;1.20;99.90;;;;;;5020298;28;20206;-73
2021/04/13 01:49:41;;;;;;;2.55;1.40;;;1.20;99.90;;;;;;5021165;28;20228;-73
2021/04/13 01:52:24;;;;;;;2.67;1.40;;;1.20;99.90;;;;;;5002780;28;20627;-73
2021/04/13 01:54:51;;;;;;;2.08;1.40;;;1.20;99.90;;;;;;5002422;28;20736;-73
2021/04/13 01:57:35;;;;;;;2.85;1.50;;;1.20;99.90;;;;;;5022313;28;20194;-73
2021/04/13 02:00:18;;;;;;;3.42;1.40;;;1.30;99.90;;;;;;5006281;28;20210;-74
2021/04/13 02:02:56;;;;;;;6.28;1.60;;;1.30;99.90;;;;;;5020733;28;20194;-73
2021/04/13 02:05:26;;;;;;;1.98;1.27;;;1.30;99.90;;;;;;4989182;28;20265;-73
2021/04/13 02:08:03;;;;;;;2.00;1.40;;;1.30;99.90;;;;;;4987850;28;20206;-73
2021/04/13 02:10:41;;;;;;;2.08;1.50;;;1.30;99.90;;;;;;5000022;28;20294;-72
2021/04/13 02:13:17;;;;;;;2.53;1.40;;;1.30;99.90;;;;;;4999967;28;20196;-74
2021/04/13 02:16:03;;;;;;;4.88;1.50;;;1.30;99.90;;;;;;4999063;28;20605;-73
2021/04/13 02:18:41;;;;;;;1.70;1.33;;;1.30;99.90;;;;;;5000108;28;20203;-73
2021/04/13 02:21:39;;;;;;;2.45;1.48;;;1.30;99.90;;;;;;4997126;28;20240;-73
2021/04/13 02:24:28;;;;;;;2.05;1.65;;;1.30;99.90;;;;;;4971816;28;20210;-72
2021/04/13 02:26:58;;;;;;;2.72;1.50;;;1.20;99.90;;;;;;5004598;28;20254;-73
2021/04/13 02:29:38;;;;;;;2.97;1.40;;;1.20;99.90;;;;;;4999892;28;20577;-73
2021/04/13 02:32:18;;;;;;;1.88;1.10;;;1.20;99.90;;;;;;4998681;28;20252;-73
2021/04/13 02:34:50;;;;;;;1.88;1.20;;;1.20;99.90;;;;;;4997812;28;20321;-73
2021/04/13 02:37:32;;;;;;;2.20;1.40;;;1.20;99.90;;;;;;5000824;28;20206;-72
2021/04/13 02:40:09;;;;;;;2.63;1.30;;;1.10;99.90;;;;;;5000134;28;20195;-73
2021/04/13 02:42:39;;;;;;;2.47;1.30;;;1.10;99.90;;;;;;4993792;28;20561;-73
2021/04/13 02:45:08;;;;;;;2.85;1.20;;;1.10;99.90;;;;;;4998687;28;20191;-72
2021/04/13 02:47:45;;;;;;;2.45;1.40;;;1.10;99.90;;;;;;5002077;28;20210;-73
2021/04/13 02:50:16;;;;;;;1.50;1.25;;;1.10;99.90;;;;;;4996965;28;20207;-73
2021/04/13 02:52:49;;;;;;;3.65;1.38;;;1.10;99.90;;;;;;4997379;28;20209;-73
2021/04/13 02:55:25;;;;;;;1.42;1.30;;;1.00;99.90;;;;;;4999515;28;21195;-72
2021/04/13 02:57:53;;;;;;;1.42;1.30;;;1.00;99.90;;;;;;4998344;28;20204;-72
2021/04/13 03:00:43;;;;;;;2.42;1.20;;;1.00;99.90;;;;;;4999291;28;20664;-72
2021/04/13 03:03:19;;;;;;;2.63;1.10;;;0.90;99.90;;;;;;4993349;28;20269;-72
2021/04/13 03:05:52;;;;;;;3.13;1.50;;;0.90;99.90;;;;;;4998075;28;20229;-73
2021/04/13 03:08:19;;;;;;;1.88;1.30;;;0.90;99.90;;;;;;4982867;28;20198;-73
2021/04/13 03:10:50;;;;;;;1.40;1.30;;;0.90;99.90;;;;;;4999235;28;20704;-72
2021/04/13 03:13:19;;;;;;;1.42;1.30;;;0.90;99.90;;;;;;5001261;28;20199;-73
2021/04/13 03:15:55;;;;;;;1.27;1.17;;;1.00;99.90;;;;;;5001648;28;20214;-72
2021/04/13 03:18:26;;;;;;;3.28;1.40;;;0.90;99.90;;;;;;5000498;28;20716;-72
2021/04/13 03:20:55;;;;;;;1.45;1.20;;;1.00;99.90;;;;;;4997304;28;20207;-73
2021/04/13 03:23:27;;;;;;;1.00;1.00;;;1.00;99.90;;;;;;5000193;28;20312;-73
2021/04/13 03:25:57;;;;;;;2.78;1.25;;;0.90;99.90;;;;;;4998725;28;20289;-72
2021/04/13 03:28:27;;;;;;;1.90;1.25;;;0.90;99.90;;;;;;4995510;28;20207;-73
2021/04/13 03:30:54;;;;;;;1.40;1.10;;;0.90;99.90;;;;;;4997525;28;20501;-74
2021/04/13 03:33:30;;;;;;;1.30;1.20;;;0.90;99.90;;;;;;4984054;28;20221;-73
2021/04/13 03:36:19;;;;;;;1.30;1.20;;;0.90;99.90;;;;;;5000286;28;20195;-72
2021/04/13 03:38:52;;;;;;;1.33;1.10;;;0.90;99.90;;;;;;5000602;28;20753;-72
2021/04/13 03:41:20;;;;;;;2.00;1.20;;;0.90;99.90;;;;;;4997905;28;20338;-74
2021/04/13 03:43:53;;;;;;;1.80;1.20;;;1.00;99.90;;;;;;4999021;28;20528;-72
2021/04/13 03:46:20;;;;;;;1.67;1.23;;;0.90;99.90;;;;;;4997749;28;20707;-72
2021/04/13 03:48:49;;;;;;;3.22;1.00;;;0.90;99.90;;;;;;5000137;28;20693;-72
2021/04/13 03:51:24;;;;;;;1.30;1.20;;;0.90;99.90;;;;;;4981199;28;20261;-71
2021/04/13 03:53:50;;;;;;;2.75;1.17;;;0.90;99.90;;;;;;4998703;28;20586;-71
2021/04/13 03:56:18;;;;;;;1.77;1.20;;;0.90;99.90;;;;;;4989110;28;20252;-73
2021/04/13 03:58:47;;;;;;;4.05;1.30;;;0.90;99.90;;;;;;5000839;28;20194;-73
2021/04/13 04:01:20;;;;;;;2.83;1.30;;;0.80;99.90;;;;;;5000874;28;20214;-74
2021/04/13 04:04:01;;;;;;;1.30;1.20;;;0.80;99.90;;;;;;4986856;28;20249;-72
2021/04/13 04:07:00;;;;;;;2.58;1.15;;;0.80;99.90;;;;;;4998591;28;20226;-72
2021/04/13 04:09:28;;;;;;;2.00;1.40;;;0.80;99.90;;;;;;4964965;28;20558;-72
2021/04/13 04:11:56;;;;;;;1.83;1.10;;;0.80;99.90;;;;;;5000629;28;20233;-72
2021/04/13 04:14:25;;;;;;;1.80;1.35;;;0.80;99.90;;;;;;5004001;28;20681;-72
2021/04/13 04:17:00;;;;;;;1.50;1.25;;;0.80;99.90;;;;;;4986663;28;20711;-72
2021/04/13 04:19:27;;;;;;;1.13;1.05;;;0.80;99.90;;;;;;4995248;28;20301;-72
2021/04/13 04:22:05;;;;;;;0.98;0.98;;;0.90;99.90;;;;;;5003440;28;20206;-73
2021/04/13 04:24:33;;;;;;;0.98;0.95;;;0.90;99.90;;;;;;5002733;28;20626;-74
2021/04/13 04:27:14;;;;;;;1.58;1.20;;;1.00;99.90;;;;;;5004127;28;20210;-73
2021/04/13 04:30:23;;;;;;;1.25;1.08;;;1.00;99.90;;;;;;4985659;28;20233;-72
2021/04/13 04:32:50;;;;;;;1.10;1.00;;;0.90;99.90;;;;;;4990908;28;20209;-72
2021/04/13 04:35:38;;;;;;;1.35;1.25;;;0.80;99.90;;;;;;5002778;28;20198;-72
2021/04/13 04:38:30;;;;;;;1.75;1.00;;;0.80;99.90;;;;;;5004588;28;20187;-73
2021/04/13 04:40:57;;;;;;;1.20;1.10;;;0.80;99.90;;;;;;5001715;28;20222;-73
2021/04/13 04:43:45;;;;;;;3.45;1.23;;;0.80;99.90;;;;;;5004595;28;20970;-72
2021/04/13 04:46:32;;;;;;;1.30;1.20;;;0.80;99.90;;;;;;4998126;28;20199;-72
2021/04/13 04:49:04;;;;;;;2.03;1.20;;;0.80;99.90;;;;;;4984544;28;20300;-73
2021/04/13 04:51:30;;;;;;;1.90;1.20;;;0.90;99.90;;;;;;4965624;28;20209;-72
2021/04/13 04:53:56;;;;;;;1.73;1.30;;;0.90;99.90;;;;;;4998447;28;20629;-72
2021/04/13 04:56:21;;;;;;;1.67;1.30;;;0.90;99.90;;;;;;4993308;28;20219;-73
2021/04/13 04:58:47;;;;;;;2.72;1.65;;;0.90;99.90;;;;;;4996761;28;20202;-72
2021/04/13 05:01:13;;;;;;;1.50;1.30;;;0.90;99.90;;;;;;4980035;28;20283;-73
2021/04/13 05:03:42;;;;;;;1.73;1.52;;;0.90;99.90;;;;;;4999586;28;20228;-73
2021/04/13 05:06:08;;;;;;;1.17;1.08;;;0.90;99.90;;;;;;5001621;28;20244;-72
2021/04/13 05:08:34;;;;;;;1.55;1.10;;;0.90;99.90;;;;;;4981581;28;20203;-73
2021/04/13 05:10:59;;;;;;;1.67;1.17;;;1.00;99.90;;;;;;5002650;28;20280;-72
2021/04/13 05:13:25;;;;;;;1.15;1.05;;;0.90;99.90;;;;;;4991487;28;20198;-73
2021/04/13 05:15:51;;;;;;;1.20;1.08;;;0.90;99.90;;;;;;4999724;28;20892;-72
2021/04/13 05:18:17;;;;;;;1.33;1.20;;;0.90;99.90;;;;;;5009725;28;20612;-73
2021/04/13 05:20:43;;;;;;;1.70;1.20;;;0.90;99.90;;;;;;5004689;28;20206;-72
2021/04/13 05:23:09;;;;;;;1.30;1.20;;;0.90;99.90;;;;;;5001626;28;20234;-73
2021/04/13 05:25:35;;;;;;;1.83;1.10;;;1.00;99.90;;;;;;4980974;28;20334;-72
2021/04/13 05:28:00;;;;;;;2.30;1.10;;;1.00;99.90;;;;;;4999256;28;20661;-73
2021/04/13 05:30:27;;;;;;;1.65;1.23;;;1.00;99.90;;;;;;4999708;28;20203;-72
2021/04/13 05:32:52;;;;;;;1.20;1.10;;;1.10;99.90;;;;;;4981710;28;20206;-72
2021/04/13 05:35:20;;;;;;;1.52;1.20;;;1.10;99.90;;;;;;4993015;28;20194;-74
2021/04/13 05:37:46;;;;;;;1.23;1.13;;;1.10;99.90;;;;;;4997177;28;20198;-73
2021/04/13 05:40:20;;;;;;;3.17;2.33;;;1.20;99.90;;;;;;4993586;28;20256;-72
2021/04/13 05:42:46;;;;;;;3.00;1.85;;;1.20;99.90;;;;;;4991292;28;20224;-73
2021/04/13 05:45:14;;;;;;;3.08;2.10;;;1.30;99.90;;;;;;5000655;28;20677;-72
2021/04/13 05:47:40;;;;;;;2.00;1.70;;;1.40;99.90;;;;;;5006215;28;20203;-73
2021/04/13 05:50:10;;;;;;;3.20;1.88;;;1.60;99.90;;;;;;4997610;28;20206;-73
2021/04/13 05:52:36;;;;;;;2.80;1.83;;;1.70;99.90;;;;;;5002193;28;20199;-72
2021/04/13 05:55:02;;;;;;;2.05;1.70;;;1.80;99.90;;;;;;5002205;28;20249;-73
2021/04/13 05:57:30;;;;;;;2.10;1.65;;;1.90;99.90;;;;;;5002316;28;21002;-74
2021/04/13 05:59:58;;;;;;;1.90;1.50;;;2.00;99.90;;;;;;5000681;28;20281;-73
2021/04/13 06:02:24;;;;;;;2.25;1.45;;;2.00;99.90;;;;;;4999413;28;20205;-73
2021/04/13 06:04:53;;;;;;;4.20;1.65;;;2.10;99.90;;;;;;5002452;28;20215;-72
2021/04/13 06:07:19;;;;;;;2.08;1.50;;;2.20;99.90;;;;;;4995136;28;20227;-72
2021/04/13 06:09:46;;;;;;;4.97;1.67;;;2.30;99.90;;;;;;4979936;28;20218;-72
2021/04/13 06:12:15;;;;;;;1.63;1.30;;;2.40;99.90;;;;;;5001287;28;20226;-73
2021/04/13 06:14:42;;;;;;;2.67;1.30;;;2.50;99.90;;;;;;5003481;28;20201;-72
2021/04/13 06:17:11;;;;;;;2.67;1.33;;;2.50;99.90;;;;;;4987129;28;20298;-72
2021/04/13 06:19:37;;;;;;;1.60;1.30;;;2.40;99.90;;;;;;5003224;28;20199;-71
2021/04/13 06:22:03;;;;;;;1.30;1.20;;;2.40;99.90;;;;;;5001782;28;20210;-72
2021/04/13 06:24:29;;;;;;;1.80;1.30;;;2.30;99.90;;;;;;5002535;28;20512;-73
2021/04/13 06:26:54;;;;;;;1.15;1.05;;;2.30;99.90;;;;;;5001887;28;20219;-72
2021/04/13 06:29:22;;;;;;;1.30;1.10;;;2.30;99.90;;;;;;5000251;28;20653;-73
2021/04/13 06:31:47;;;;;;;2.42;1.23;;;2.20;99.90;;;;;;5004769;28;20305;-71
2021/04/13 06:34:13;;;;;;;1.50;1.40;;;2.20;99.90;;;;;;5007900;28;20575;-72
2021/04/13 06:36:39;;;;;;;1.20;1.10;;;2.20;99.90;;;;;;5006910;28;20763;-74
2021/04/13 06:39:06;;;;;;;1.55;1.20;;;2.30;99.90;;;;;;5006418;28;20187;-72
2021/04/13 06:41:51;;;;;;;0.93;0.93;;;2.30;99.90;;;;;;5002915;28;20257;-72
2021/04/13 06:44:40;;;;;;;1.30;1.10;;;2.30;99.90;;;;;;4994169;28;20679;-71
2021/04/13 06:47:15;;;;;;;2.00;1.30;;;2.30;99.90;;;;;;4981373;28;20211;-72
2021/04/13 06:49:43;;;;;;;1.60;1.27;;;2.40;99.90;;;;;;4997868;28;20233;-74
2021/04/13 06:52:23;;;;;;;2.75;1.15;;;2.50;99.90;;;;;;5000141;28;20294;-73
2021/04/13 06:54:54;;;;;;;2.15;1.38;;;2.50;99.90;;;;;;4992692;28;20202;-73
2021/04/13 06:57:51;;;;;;;2.30;1.02;;;2.60;99.90;;;;;;5006258;28;20206;-73
2021/04/13 07:00:50;;;;;;;2.00;1.40;;;2.60;99.90;;;;;;5000892;28;20187;-72
2021/04/13 07:03:23;;;;;;;1.48;1.17;;;2.60;99.90;;;;;;5000480;28;20207;-72
2021/04/13 07:06:10;;;;;;;1.20;1.10;;;2.60;99.90;;;;;;4999809;28;20764;-74
2021/04/13 07:08:52;;;;;;;2.88;1.20;;;2.60;99.90;;;;;;4996302;28;20451;-72
2021/04/13 07:11:37;;;;;;;1.42;1.33;;;2.60;99.90;;;;;;4999843;28;20231;-73
2021/04/13 07:14:18;;;;;;;4.05;2.10;;;2.60;99.90;;;;;;4980698;28;20210;-73
2021/04/13 07:16:54;;;;;;;5.63;2.08;;;2.60;99.90;;;;;;5002416;28;20205;-73
2021/04/13 07:19:26;;;;;;;3.00;1.30;;;2.70;99.90;;;;;;4998474;28;20208;-72
2021/04/13 07:22:26;;;;;;;1.50;1.40;;;2.80;99.90;;;;;;4979272;28;20293;-73
2021/04/13 07:25:24;;;;;;;1.23;1.10;;;2.90;99.90;;;;;;4997543;28;20198;-73
2021/04/13 07:28:00;;;;;;;1.25;1.15;;;3.00;99.90;;;;;;4995721;28;20218;-73
2021/04/13 07:30:54;;;;;;;1.20;1.10;;;2.90;99.90;;;;;;5000680;28;20548;-74
2021/04/13 07:33:25;;;;;;;2.78;1.63;;;2.90;99.90;;;;;;4997897;28;20764;-73
2021/04/13 07:35:57;;;;;;;1.80;1.55;;;3.10;99.90;;;;;;4998739;28;20210;-74
2021/04/13 07:38:25;;;;;;;1.45;1.30;;;3.20;99.90;;;;;;5001372;28;20280;-74
2021/04/13 07:40:54;;;;;;;1.80;1.20;;;3.30;99.90;;;;;;5000548;28;20309;-74
2021/04/13 07:43:27;;;;;;;1.30;1.20;;;3.40;99.90;;;;;;5001403;28;20286;-74
2021/04/13 07:46:02;;;;;;;1.08;0.90;;;3.40;99.90;;;;;;4999321;28;20199;-74
2021/04/13 07:48:31;;;;;;;1.20;1.10;;;3.50;99.90;;;;;;4996104;28;20233;-75
2021/04/13 07:51:24;;;;;;;2.35;1.15;;;3.30;99.90;;;;;;5004224;28;20416;-74
2021/04/13 07:54:05;;;;;;;1.40;1.30;;;3.20;99.90;;;;;;4999277;28;20249;-74
2021/04/13 07:56:46;;;;;;;1.08;0.98;;;3.30;99.90;;;;;;4996903;28;20702;-73
2021/04/13 07:59:39;;;;;;;3.00;1.10;;;3.50;99.90;;;;;;5007981;28;20205;-71
2021/04/13 08:02:05;;;;;;;1.38;1.20;;;3.80;99.90;;;;;;5000943;28;20268;-72
2021/04/13 08:04:31;;;;;;;1.30;1.20;;;4.20;99.90;;;;;;4973134;28;20230;-71
2021/04/13 08:07:18;;;;;;;1.58;1.05;;;4.80;99.90;;;;;;4981720;28;20702;-72
2021/04/13 08:10:17;;;;;;;1.70;1.10;;;5.00;99.90;;;;;;4995906;28;20207;-71
2021/04/13 08:12:58;;;;;;;1.45;1.20;;;5.10;99.90;;;;;;5003232;28;20566;-72
2021/04/13 08:15:41;;;;;;;1.52;1.10;;;5.20;99.90;;;;;;4999925;28;20347;-71
2021/04/13 08:18:26;;;;;;;1.02;1.02;;;5.10;99.90;;;;;;5001287;28;20199;-71
2021/04/13 08:20:54;;;;;;;1.67;1.20;;;4.90;99.90;;;;;;4985249;28;20194;-72
2021/04/13 08:23:26;;;;;;;1.05;0.98;;;4.70;99.90;;;;;;4986361;28;20222;-71
2021/04/13 08:26:12;;;;;;;1.20;1.10;;;4.30;99.90;;;;;;4999747;28;20732;-71
2021/04/13 08:28:37;;;;;;;2.45;1.67;;;4.10;99.90;;;;;;4978376;28;20259;-70
2021/04/13 08:35:17;;;;;;;1.00;1.00;;;4.00;99.90;;;;;;4970797;28;20268;-71
2021/04/13 08:37:52;;;;;;;1.30;1.20;;;3.70;99.90;;;;;;4938529;28;20205;-71
2021/04/13 08:40:26;;;;;;;2.78;1.83;;;3.70;99.90;;;;;;4938531;28;20782;-70
2021/04/13 08:42:59;;;;;;;2.30;1.85;;;3.80;99.90;;;;;;4967727;28;21059;-71
2021/04/13 08:45:41;;;;;;;1.33;1.20;;;3.80;99.90;;;;;;4995155;28;20606;-71
2021/04/13 08:48:26;;;;;;;1.10;0.93;;;3.80;99.90;;;;;;4987621;28;20313;-71
2021/04/13 08:51:14;;;;;;;1.08;1.00;;;3.70;99.90;;;;;;4997047;28;20218;-71
2021/04/13 08:53:48;;;;;;;1.20;1.10;;;3.80;99.90;;;;;;4996346;28;20257;-72
2021/04/13 08:56:29;;;;;;;1.10;1.00;;;4.10;99.90;;;;;;4996603;28;20195;-72
2021/04/13 08:59:00;;;;;;;1.08;0.98;;;4.30;99.90;;;;;;4990182;28;20203;-72
2021/04/13 09:01:25;;;;;;;1.75;1.10;;;4.60;99.90;;;;;;4994933;28;20272;-72
2021/04/13 09:03:51;;;;;;;5.38;3.67;;;4.70;99.90;;;;;;4996179;28;20230;-72
2021/04/13 09:06:45;;;;;;;2.75;1.70;;;4.90;99.90;;;;;;4999801;28;20246;-72
2021/04/13 09:09:29;;;;;;;1.05;0.90;;;5.00;99.90;;;;;;4994550;28;20205;-73
2021/04/13 09:12:21;;;;;;;1.20;0.70;;;4.90;99.90;;;;;;4975640;28;20245;-71
2021/04/13 09:14:53;;;;;;;1.88;0.90;;;4.80;99.90;;;;;;4991252;28;20207;-71
2021/04/13 09:17:19;;;;;;;3.38;1.20;;;4.60;99.90;;;;;;4997458;28;20202;-72
2021/04/13 09:20:09;;;;;;;1.98;1.30;;;4.60;99.90;;;;;;4993736;28;20245;-72
2021/04/13 09:22:46;;;;;;;0.95;0.93;;;4.70;99.90;;;;;;4977351;28;20194;-71
2021/04/13 09:25:26;;;;;;;0.90;0.90;;;4.80;99.90;;;;;;4978019;28;20293;-72
2021/04/13 09:28:08;;;;;;;1.80;1.55;;;5.40;99.90;;;;;;4992216;28;20199;-71
2021/04/13 09:30:48;;;;;;;1.40;1.30;;;5.70;99.90;;;;;;4995521;28;20233;-71
2021/04/13 09:33:32;;;;;;;2.15;0.80;;;5.90;99.90;;;;;;5000103;28;20250;-71
2021/04/13 09:36:18;;;;;;;2.00;1.30;;;5.80;99.90;;;;;;4975350;28;20577;-72
2021/04/13 09:38:56;;;;;;;1.50;1.35;;;5.70;99.90;;;;;;4993961;28;20285;-71
2021/04/13 09:42:04;;;;;;;1.00;1.00;;;5.50;99.90;;;;;;4976776;28;20226;-71
2021/04/13 09:45:09;;;;;;;0.82;0.82;;;5.10;99.90;;;;;;4998067;28;20218;-71
2021/04/13 09:48:10;;;;;;;1.00;0.90;;;5.10;99.90;;;;;;5001871;28;20446;-71
2021/04/13 09:50:55;;;;;;;1.80;1.42;;;5.10;99.90;;;;;;4997458;28;20619;-71
2021/04/13 09:53:36;;;;;;;1.13;1.02;;;5.00;99.90;;;;;;4996236;28;20210;-70
2021/04/13 09:56:33;;;;;;;1.40;1.30;;;4.90;99.90;;;;;;4996687;28;20191;-71
2021/04/13 09:59:17;;;;;;;1.20;1.10;;;4.80;99.90;;;;;;4969883;28;20279;-72
2021/04/13 10:02:14;;;;;;;1.10;1.00;;;4.90;99.90;;;;;;4991818;28;20199;-71
2021/04/13 10:05:00;;;;;;;1.70;1.30;;;4.90;99.90;;;;;;4985626;28;20284;-71
2021/04/13 10:07:25;;;;;;;1.08;0.98;;;4.70;99.90;;;;;;4997100;28;20272;-72
2021/04/13 10:09:52;;;;;;;1.08;0.88;;;4.70;99.90;;;;;;5000432;28;20285;-71
2021/04/13 10:12:47;;;;;;;1.58;1.25;;;4.70;99.90;;;;;;4992924;28;20246;-72
2021/04/13 10:15:22;;;;;;;0.90;0.90;;;4.60;99.90;;;;;;4973725;28;20830;-71
2021/04/13 10:18:18;;;;;;;1.10;1.00;;;4.80;99.90;;;;;;4998672;28;20210;-71
2021/04/13 10:21:22;;;;;;;1.20;1.10;;;4.80;99.90;;;;;;4990321;28;20214;-73
2021/04/13 10:24:02;;;;;;;0.95;0.90;;;4.90;99.90;;;;;;4993250;28;20203;-72
2021/04/13 10:27:10;;;;;;;1.20;1.00;;;5.00;99.90;;;;;;4994711;28;20709;-72
2021/04/13 10:29:38;;;;;;;1.70;1.13;;;5.20;99.90;;;;;;4989507;28;20210;-73
2021/04/13 10:32:31;;;;;;;1.13;0.93;;;5.20;99.90;;;;;;4994829;28;20257;-73
2021/04/13 10:35:13;;;;;;;5.65;1.00;;;5.10;99.90;;;;;;4986896;28;20203;-73
2021/04/13 10:38:00;;;;;;;0.80;0.80;;;5.30;99.90;;;;;;4989879;28;20323;-72
2021/04/13 10:41:06;;;;;;;1.05;0.90;;;5.40;99.90;;;;;;4979069;28;20621;-72
2021/04/13 10:43:59;;;;;;;0.70;0.70;;;5.40;99.90;;;;;;4994261;28;20302;-71
2021/04/13 10:47:03;;;;;;;1.33;0.80;;;5.40;99.90;;;;;;4992389;28;20712;-72
2021/04/13 10:49:39;;;;;;;1.00;0.90;;;5.40;99.90;;;;;;4940096;28;20550;-72
2021/04/13 10:52:39;;;;;;;2.90;0.93;;;5.50;99.90;;;;;;5005234;28;20285;-72
2021/04/13 10:55:27;;;;;;;2.15;1.02;;;5.80;99.90;;;;;;4944379;28;20214;-71
2021/04/13 10:58:03;;;;;;;1.58;1.13;;;6.40;99.90;;;;;;5002511;28;20993;-72
2021/04/13 11:00:40;;;;;;;1.80;0.95;;;6.80;99.90;;;;;;4983907;28;20194;-71
2021/04/13 11:03:44;;;;;;;1.05;0.82;;;7.30;99.90;;;;;;4983123;28;20199;-71
2021/04/13 11:06:34;;;;;;;1.48;0.90;;;7.70;99.90;;;;;;4972204;28;20798;-72
2021/04/13 11:09:45;;;;;;;1.67;1.00;;;7.40;99.90;;;;;;4988053;28;20301;-72
2021/04/13 11:12:46;;;;;;;0.80;0.80;;;7.20;99.90;;;;;;4993110;28;20238;-72
2021/04/13 11:15:42;;;;;;;1.67;1.00;;;6.90;99.90;;;;;;4975037;28;21029;-71
2021/04/13 11:18:27;;;;;;;1.35;0.80;;;6.60;99.90;;;;;;5002177;28;20198;-71
2021/04/13 11:21:27;;;;;;;1.15;0.90;;;6.70;99.90;;;;;;4999108;28;20206;-72
2021/04/13 11:24:02;;;;;;;2.10;0.80;;;7.00;99.90;;;;;;4984834;28;20285;-71
2021/04/13 11:26:36;;;;;;;1.30;0.90;;;7.10;99.90;;;;;;5009464;28;20251;-72
2021/04/13 11:29:40;;;;;;;1.45;0.90;;;7.00;99.90;;;;;;4976339;28;20283;-72
2021/04/13 11:32:23;;;;;;;1.70;0.90;;;6.60;99.90;;;;;;4999540;28;20210;-71
2021/04/13 11:35:03;;;;;;;0.90;0.80;;;6.80;99.90;;;;;;4994087;28;20710;-71
2021/04/13 11:37:51;;;;;;;1.00;0.80;;;6.80;99.90;;;;;;4977051;28;20304;-73
2021/04/13 11:40:37;;;;;;;0.70;0.70;;;6.80;99.90;;;;;;4977343;28;20575;-72
2021/04/13 11:43:08;;;;;;;0.73;0.70;;;6.90;99.90;;;;;;4997832;28;20210;-72
2021/04/13 11:46:05;;;;;;;0.90;0.90;;;6.80;99.90;;;;;;4981674;28;20653;-72
2021/04/13 11:49:04;;;;;;;0.90;0.85;;;7.20;99.90;;;;;;4991136;28;20221;-73
2021/04/13 11:51:37;;;;;;;1.00;0.88;;;8.30;99.90;;;;;;4998824;28;20221;-73
2021/04/13 11:54:37;;;;;;;1.23;0.80;;;9.10;99.90;;;;;;4998806;28;20709;-72
2021/04/13 11:57:10;;;;;;;0.80;0.80;;;9.10;99.90;;;;;;4982730;28;20550;-73
2021/04/13 11:59:36;;;;;;;1.27;0.90;;;8.40;99.90;;;;;;4999629;28;20695;-73
2021/04/13 12:02:28;;;;;;;0.80;0.80;;;8.30;99.90;;;;;;5003772;28;20529;-72
2021/04/13 12:04:56;;;;;;;0.95;0.82;;;8.60;99.90;;;;;;4988053;28;20405;-73
2021/04/13 12:07:48;;;;;;;1.10;0.93;;;8.20;99.90;;;;;;4977027;28;20772;-72
2021/04/13 12:10:33;;;;;;;2.90;0.80;;;7.50;99.90;;;;;;4967050;28;20200;-71
2021/04/13 12:13:07;;;;;;;0.80;0.80;;;7.10;99.90;;;;;;4973968;28;20289;-71
2021/04/13 12:15:38;;;;;;;5.75;0.88;;;7.20;99.90;;;;;;4978631;28;20289;-71
2021/04/13 12:18:35;;;;;;;1.25;0.80;;;7.20;99.90;;;;;;4979952;28;20199;-72
2021/04/13 12:21:22;;;;;;;1.05;0.90;;;7.50;99.90;;;;;;4974861;28;20203;-72
2021/04/13 12:24:03;;;;;;;0.93;0.80;;;7.70;99.90;;;;;;4958106;28;20518;-71
2021/04/13 12:26:30;;;;;;;1.45;0.90;;;8.00;99.90;;;;;;4958808;28;20247;-72
2021/04/13 12:28:56;;;;;;;1.60;0.80;;;7.90;99.90;;;;;;4978479;28;20215;-72
2021/04/13 12:31:25;;;;;;;1.60;0.90;;;7.90;99.90;;;;;;4976907;28;20298;-70
2021/04/13 12:34:00;;;;;;;1.45;0.90;;;7.70;99.90;;;;;;4973146;28;20655;-72
2021/04/13 12:36:57;;;;;;;1.08;0.80;;;7.90;99.90;;;;;;4974130;28;20203;-72
2021/04/13 12:39:45;;;;;;;1.05;0.80;;;7.80;99.90;;;;;;4974543;28;20247;-71
2021/04/13 12:42:41;;;;;;;1.00;0.90;;;7.60;99.90;;;;;;4977207;28;20496;-72
2021/04/13 12:45:18;;;;;;;0.93;0.80;;;7.30;99.90;;;;;;4966185;28;20654;-72
2021/04/13 12:48:08;;;;;;;2.28;1.10;;;7.10;99.90;;;;;;4959646;28;20261;-71
2021/04/13 12:50:39;;;;;;;0.82;0.80;;;7.00;99.90;;;;;;4967905;28;20702;-72
2021/04/13 12:53:21;;;;;;;0.95;0.80;;;7.20;99.90;;;;;;4984473;28;20206;-72
2021/04/13 12:55:57;;;;;;;1.92;0.85;;;7.70;99.90;;;;;;4983520;28;20291;-72
2021/04/13 12:58:30;;;;;;;1.25;0.88;;;8.30;99.90;;;;;;4978477;28;20687;-72
2021/04/13 13:00:56;;;;;;;0.80;0.80;;;8.80;99.90;;;;;;4982732;28;20325;-71
2021/04/13 13:03:30;;;;;;;2.95;0.80;;;8.90;97.80;;;;;;4974847;28;20227;-72
2021/04/13 13:05:56;;;;;;;1.35;0.82;;;9.30;99.90;;;;;;4982388;28;20708;-72
2021/04/13 13:08:28;;;;;;;1.35;0.90;;;9.80;96.80;;;;;;4964686;28;20200;-72
2021/04/13 13:10:56;;;;;;;2.10;0.90;;;10.20;98.20;;;;;;4979954;28;20222;-72
2021/04/13 13:13:33;;;;;;;2.08;1.00;;;10.30;96.80;;;;;;4980957;28;20671;-73
2021/04/13 13:16:11;;;;;;;1.95;1.00;;;9.90;94.30;;;;;;4984203;28;21067;-72
2021/04/13 13:18:42;;;;;;;2.13;0.90;;;9.30;98.60;;;;;;4982133;28;20294;-72
2021/04/13 13:21:10;;;;;;;1.02;0.90;;;8.90;96.00;;;;;;4981953;28;20649;-73
2021/04/13 13:23:39;;;;;;;1.35;0.82;;;8.50;98.40;;;;;;4979712;28;20524;-73
2021/04/13 13:26:20;;;;;;;1.35;0.90;;;8.40;98.70;;;;;;4981659;28;20717;-72
2021/04/13 13:28:46;;;;;;;1.17;0.90;;;8.40;99.00;;;;;;4979662;28;20218;-72
2021/04/13 13:31:45;;;;;;;1.67;0.90;;;8.00;98.80;;;;;;4981691;28;20239;-72
2021/04/13 13:34:24;;;;;;;0.80;0.80;;;8.00;99.30;;;;;;4965040;28;20212;-73
2021/04/13 13:36:51;;;;;;;2.35;0.95;;;8.10;99.40;;;;;;4983968;28;20191;-74
2021/04/13 13:39:29;;;;;;;2.05;0.90;;;8.10;98.70;;;;;;4984099;28;20196;-71
2021/04/13 13:41:59;;;;;;;1.05;0.90;;;8.30;99.90;;;;;;4983547;28;20689;-72
2021/04/13 13:44:37;;;;;;;1.30;1.00;;;8.40;97.80;;;;;;4963476;28;20207;-72
2021/04/13 13:47:05;;;;;;;1.00;0.90;;;8.50;97.80;;;;;;4976816;28;20264;-73
2021/04/13 13:49:43;;;;;;;2.08;1.10;;;8.80;97.40;;;;;;4980794;28;20196;-73
2021/04/13 13:52:10;;;;;;;0.80;0.80;;;9.10;96.90;;;;;;4976173;28;20301;-72
2021/04/13 13:54:37;;;;;;;1.00;0.90;;;9.20;96.30;;;;;;4973069;28;20202;-73
2021/04/13 13:57:10;;;;;;;0.73;0.73;;;8.80;97.20;;;;;;4964776;28;20196;-74